createdAt,value
2019-05-28T00:00:03.733Z,970.5
2019-05-28T00:01:06.335Z,970.5
2019-05-28T00:02:07.641Z,970.6
2019-05-28T00:03:09.013Z,970.5
2019-05-28T00:04:10.323Z,970.5
2019-05-28T00:05:11.621Z,970.6
2019-05-28T00:06:13.939Z,970.5
2019-05-28T00:07:15.232Z,970.5
2019-05-28T00:08:16.503Z,970.5
2019-05-28T00:09:17.769Z,970.5
2019-05-28T00:10:19.079Z,970.4
2019-05-28T00:11:20.417Z,970.4
2019-05-28T00:12:21.704Z,970.5
2019-05-28T00:13:23.209Z,970.5
2019-05-28T00:14:24.493Z,970.5
2019-05-28T00:15:25.755Z,970.5
2019-05-28T00:16:27.065Z,970.5
2019-05-28T00:17:28.730Z,970.4
2019-05-28T00:18:30.285Z,970.4
2019-05-28T00:19:31.583Z,970.4
2019-05-28T00:20:33.045Z,970.4
2019-05-28T00:21:34.407Z,970.4
2019-05-28T00:22:35.741Z,970.4
2019-05-28T00:23:37.009Z,970.4
2019-05-28T00:24:38.342Z,970.4
2019-05-28T00:25:39.695Z,970.4
2019-05-28T00:26:41.037Z,970.4
2019-05-28T00:27:42.389Z,970.3
2019-05-28T00:28:43.653Z,970.3
2019-05-28T00:29:44.941Z,970.3
2019-05-28T00:30:46.234Z,970.3
2019-05-28T00:31:47.549Z,970.3
2019-05-28T00:32:48.823Z,970.3
2019-05-28T00:33:50.109Z,970.3
2019-05-28T00:34:51.439Z,970.3
2019-05-28T00:35:53.230Z,970.3
2019-05-28T00:36:54.545Z,970.1
2019-05-28T00:37:55.823Z,970.3
2019-05-28T00:38:57.128Z,970.2
2019-05-28T00:40:01.712Z,970.2
2019-05-28T00:41:03.795Z,970.2
2019-05-28T00:42:05.333Z,970.2
2019-05-28T00:43:07.716Z,970.2
2019-05-28T00:44:08.993Z,970.3
2019-05-28T00:45:10.272Z,970.2
2019-05-28T00:46:11.626Z,970.2
2019-05-28T00:47:13.013Z,970.1
2019-05-28T00:48:14.301Z,970.2
2019-05-28T00:49:15.947Z,970.2
2019-05-28T00:50:17.241Z,970.2
2019-05-28T00:51:18.519Z,970.2
2019-05-28T00:52:19.864Z,970.2
2019-05-28T00:53:21.145Z,970.1
2019-05-28T00:54:22.425Z,970.1
2019-05-28T00:55:23.768Z,970.1
2019-05-28T00:56:25.140Z,970.1
2019-05-28T00:57:26.449Z,970.1
2019-05-28T00:58:27.743Z,970
2019-05-28T00:59:28.997Z,970
2019-05-28T01:00:37.818Z,970
2019-05-28T01:01:39.091Z,970.1
2019-05-28T01:02:40.434Z,970
2019-05-28T01:03:41.801Z,970
2019-05-28T01:04:43.167Z,970
2019-05-28T01:05:44.477Z,969.9
2019-05-28T01:06:45.845Z,970
2019-05-28T01:07:47.351Z,970
2019-05-28T01:08:48.681Z,969.9
2019-05-28T01:09:49.973Z,969.9
2019-05-28T01:10:51.281Z,969.9
2019-05-28T01:11:52.599Z,969.9
2019-05-28T01:12:53.900Z,969.8
2019-05-28T01:13:55.166Z,969.8
2019-05-28T01:14:56.465Z,969.9
2019-05-28T01:15:57.743Z,969.9
2019-05-28T01:16:59.016Z,969.9
2019-05-28T01:18:00.380Z,969.9
2019-05-28T01:19:01.743Z,969.9
2019-05-28T01:20:03.022Z,969.8
2019-05-28T01:21:04.638Z,969.9
2019-05-28T01:22:05.945Z,969.8
2019-05-28T01:23:07.290Z,969.9
2019-05-28T01:24:09.363Z,969.8
2019-05-28T01:25:10.636Z,970
2019-05-28T01:26:11.957Z,969.9
2019-05-28T01:27:13.236Z,969.9
2019-05-28T01:28:14.533Z,969.9
2019-05-28T01:29:15.809Z,969.7
2019-05-28T01:30:17.107Z,969.9
2019-05-28T01:31:18.396Z,969.9
2019-05-28T01:32:19.749Z,969.9
2019-05-28T01:33:21.086Z,969.9
2019-05-28T01:34:22.357Z,969.9
2019-05-28T01:35:23.653Z,970
2019-05-28T01:36:24.981Z,970
2019-05-28T01:37:26.253Z,969.9
2019-05-28T01:38:27.572Z,969.9
2019-05-28T01:39:28.875Z,969.9
2019-05-28T01:40:30.144Z,969.9
2019-05-28T01:41:31.408Z,969.9
2019-05-28T01:42:33.029Z,969.9
2019-05-28T01:43:34.353Z,969.9
2019-05-28T01:44:35.684Z,969.9
2019-05-28T01:45:36.955Z,969.9
2019-05-28T01:46:38.265Z,969.7
2019-05-28T01:47:39.548Z,969.9
2019-05-28T01:48:40.870Z,969.9
2019-05-28T01:49:42.136Z,969.9
2019-05-28T01:50:43.445Z,969.9
2019-05-28T01:51:44.746Z,969.9
2019-05-28T01:52:46.044Z,969.8
2019-05-28T01:53:47.357Z,969.8
2019-05-28T01:54:48.991Z,969.8
2019-05-28T01:55:50.244Z,969.8
2019-05-28T01:56:51.609Z,969.8
2019-05-28T01:57:52.894Z,969.8
2019-05-28T01:58:54.218Z,969.8
2019-05-28T01:59:55.536Z,969.8
2019-05-28T02:01:13.378Z,969.7
2019-05-28T02:02:14.819Z,969.8
2019-05-28T02:03:16.080Z,969.7
2019-05-28T02:04:17.416Z,969.7
2019-05-28T02:05:18.701Z,969.7
2019-05-28T02:06:20.045Z,969.7
2019-05-28T02:07:21.336Z,969.7
2019-05-28T02:08:22.864Z,969.7
2019-05-28T02:09:24.408Z,969.7
2019-05-28T02:10:25.700Z,969.8
2019-05-28T02:11:28.379Z,969.8
2019-05-28T02:12:29.702Z,969.7
2019-05-28T02:13:30.988Z,969.8
2019-05-28T02:14:32.371Z,969.8
2019-05-28T02:15:33.649Z,969.7
2019-05-28T02:16:34.937Z,969.8
2019-05-28T02:17:36.199Z,969.7
2019-05-28T02:18:37.473Z,969.8
2019-05-28T02:19:38.827Z,969.8
2019-05-28T02:20:40.107Z,969.8
2019-05-28T02:21:41.390Z,969.8
2019-05-28T02:22:45.107Z,969.8
2019-05-28T02:23:46.387Z,969.8
2019-05-28T02:24:47.744Z,969.8
2019-05-28T02:25:49.024Z,969.7
2019-05-28T02:26:50.345Z,969.8
2019-05-28T02:27:53.256Z,969.7
2019-05-28T02:28:54.538Z,969.8
2019-05-28T02:29:55.875Z,969.8
2019-05-28T02:30:57.147Z,969.7
2019-05-28T02:31:58.436Z,969.8
2019-05-28T02:32:59.702Z,969.8
2019-05-28T02:34:00.971Z,969.8
2019-05-28T02:35:02.275Z,969.8
2019-05-28T02:36:03.564Z,969.8
2019-05-28T02:37:04.845Z,969.8
2019-05-28T02:38:06.139Z,969.8
2019-05-28T02:39:07.433Z,969.8
2019-05-28T02:40:08.790Z,969.9
2019-05-28T02:41:10.073Z,969.8
2019-05-28T02:42:11.449Z,969.9
2019-05-28T02:43:12.970Z,969.9
2019-05-28T02:44:14.306Z,970
2019-05-28T02:45:15.616Z,970
2019-05-28T02:46:16.901Z,969.9
2019-05-28T02:47:18.734Z,969.9
2019-05-28T02:48:20.015Z,970
2019-05-28T02:49:21.328Z,969.9
2019-05-28T02:50:22.626Z,969.9
2019-05-28T02:51:23.912Z,969.9
2019-05-28T02:52:25.195Z,969.9
2019-05-28T02:53:26.559Z,969.9
2019-05-28T02:54:27.825Z,969.9
2019-05-28T02:55:29.162Z,970
2019-05-28T02:56:30.450Z,970
2019-05-28T02:57:31.796Z,969.9
2019-05-28T02:58:33.076Z,969.9
2019-05-28T02:59:34.347Z,970
2019-05-28T03:00:35.648Z,970
2019-05-28T03:01:45.295Z,970
2019-05-28T03:02:46.561Z,970
2019-05-28T03:03:47.876Z,970
2019-05-28T03:04:49.235Z,969.9
2019-05-28T03:05:50.578Z,970
2019-05-28T03:06:51.846Z,970
2019-05-28T03:07:56.415Z,969.9
2019-05-28T03:08:57.708Z,969.9
2019-05-28T03:09:58.984Z,969.9
2019-05-28T03:11:04.778Z,970
2019-05-28T03:12:06.286Z,970
2019-05-28T03:13:07.646Z,970
2019-05-28T03:14:08.928Z,970
2019-05-28T03:15:10.215Z,970
2019-05-28T03:16:11.532Z,969.9
2019-05-28T03:17:12.840Z,969.9
2019-05-28T03:18:14.155Z,970
2019-05-28T03:19:15.507Z,970
2019-05-28T03:20:16.830Z,969.9
2019-05-28T03:21:21.145Z,969.9
2019-05-28T03:22:22.437Z,969.9
2019-05-28T03:23:23.770Z,969.9
2019-05-28T03:24:27.750Z,970
2019-05-28T03:25:29.030Z,970
2019-05-28T03:26:30.361Z,970
2019-05-28T03:27:31.653Z,970
2019-05-28T03:28:32.930Z,970
2019-05-28T03:29:34.222Z,970
2019-05-28T03:30:36.485Z,969.9
2019-05-28T03:31:37.871Z,970
2019-05-28T03:32:39.192Z,969.9
2019-05-28T03:33:40.452Z,970
2019-05-28T03:34:43.965Z,970
2019-05-28T03:35:45.293Z,969.9
2019-05-28T03:36:46.640Z,969.9
2019-05-28T03:37:48.370Z,970
2019-05-28T03:38:49.661Z,970
2019-05-28T03:39:50.944Z,970
2019-05-28T03:40:52.219Z,969.9
2019-05-28T03:41:53.571Z,969.8
2019-05-28T03:42:54.952Z,970
2019-05-28T03:43:56.234Z,970
2019-05-28T03:44:57.529Z,969.9
2019-05-28T03:45:58.955Z,970
2019-05-28T03:47:00.264Z,970
2019-05-28T03:48:01.572Z,970
2019-05-28T03:49:05.219Z,970
2019-05-28T03:50:06.511Z,970
2019-05-28T03:51:07.804Z,969.9
2019-05-28T03:52:11.526Z,969.9
2019-05-28T03:53:12.826Z,969.9
2019-05-28T03:54:14.127Z,969.9
2019-05-28T03:55:15.416Z,969.9
2019-05-28T03:56:16.695Z,969.9
2019-05-28T03:57:18.042Z,969.9
2019-05-28T03:58:19.455Z,969.9
2019-05-28T03:59:21.878Z,969.9
2019-05-28T04:00:23.134Z,969.9
2019-05-28T04:01:24.433Z,969.8
2019-05-28T04:02:25.784Z,969.9
2019-05-28T04:03:27.063Z,969.9
2019-05-28T04:04:28.365Z,969.9
2019-05-28T04:05:29.666Z,970
2019-05-28T04:06:30.932Z,970
2019-05-28T04:07:34.358Z,970
2019-05-28T04:08:35.657Z,969.9
2019-05-28T04:09:36.938Z,970
2019-05-28T04:10:38.217Z,969.9
2019-05-28T04:11:45.985Z,970
2019-05-28T04:12:47.321Z,970
2019-05-28T04:13:48.594Z,969.9
2019-05-28T04:14:49.879Z,969.9
2019-05-28T04:15:51.188Z,970
2019-05-28T04:16:52.508Z,970
2019-05-28T04:17:53.841Z,970
2019-05-28T04:18:55.105Z,970
2019-05-28T04:19:56.395Z,970
2019-05-28T04:20:57.711Z,970.1
2019-05-28T04:21:59.010Z,970
2019-05-28T04:23:03.196Z,970
2019-05-28T04:24:04.515Z,970
2019-05-28T04:25:05.821Z,970.1
2019-05-28T04:26:10.228Z,970.1
2019-05-28T04:27:11.525Z,970.1
2019-05-28T04:28:13.050Z,970.1
2019-05-28T04:29:14.355Z,970.1
2019-05-28T04:30:15.674Z,970.1
2019-05-28T04:31:16.985Z,970.1
2019-05-28T04:32:18.301Z,970.1
2019-05-28T04:33:19.609Z,970.1
2019-05-28T04:34:20.885Z,970.1
2019-05-28T04:35:22.293Z,970.1
2019-05-28T04:36:23.576Z,970.1
2019-05-28T04:37:24.875Z,970.1
2019-05-28T04:38:26.203Z,970.1
2019-05-28T04:39:27.545Z,970.2
2019-05-28T04:40:28.890Z,970.2
2019-05-28T04:41:30.155Z,970.1
2019-05-28T04:42:31.433Z,970.1
2019-05-28T04:43:32.795Z,970.1
2019-05-28T04:44:34.091Z,970.1
2019-05-28T04:45:35.379Z,970.1
2019-05-28T04:46:36.701Z,970.2
2019-05-28T04:47:37.985Z,970.2
2019-05-28T04:48:39.335Z,970.2
2019-05-28T04:49:40.633Z,969.9
2019-05-28T04:50:41.904Z,970.1
2019-05-28T04:51:43.177Z,970.1
2019-05-28T04:52:44.564Z,970.2
2019-05-28T04:53:45.895Z,970.2
2019-05-28T04:54:47.175Z,970.2
2019-05-28T04:55:48.471Z,970.2
2019-05-28T04:56:49.801Z,970.2
2019-05-28T04:57:52.405Z,970.1
2019-05-28T04:58:53.764Z,970.1
2019-05-28T04:59:55.465Z,970.2
2019-05-28T05:00:56.743Z,970.2
2019-05-28T05:01:59.517Z,970.2
2019-05-28T05:03:02.966Z,970
2019-05-28T05:04:04.321Z,970.2
2019-05-28T05:05:05.617Z,970.2
2019-05-28T05:06:07.217Z,970.1
2019-05-28T05:07:08.507Z,970.1
2019-05-28T05:08:10.825Z,970.1
2019-05-28T05:09:12.163Z,970.1
2019-05-28T05:10:13.530Z,970.1
2019-05-28T05:11:14.829Z,970.2
2019-05-28T05:12:19.263Z,970.1
2019-05-28T05:13:20.567Z,970.1
2019-05-28T05:14:21.926Z,970.1
2019-05-28T05:15:33.543Z,970.2
2019-05-28T05:16:34.863Z,970.1
2019-05-28T05:17:39.196Z,970.1
2019-05-28T05:18:40.536Z,970.1
2019-05-28T05:19:41.882Z,970.1
2019-05-28T05:20:43.291Z,970.1
2019-05-28T05:21:44.582Z,970.1
2019-05-28T05:22:46.239Z,970.1
2019-05-28T05:23:47.521Z,970.1
2019-05-28T05:24:51.917Z,970.1
2019-05-28T05:25:53.195Z,970.1
2019-05-28T05:27:03.597Z,970.1
2019-05-28T05:28:19.138Z,970.1
2019-05-28T05:29:20.421Z,970.1
2019-05-28T05:30:22.267Z,970.2
2019-05-28T05:31:23.647Z,970.1
2019-05-28T05:32:31.341Z,970.1
2019-05-28T05:33:32.661Z,970.2
2019-05-28T05:34:36.935Z,970.2
2019-05-28T05:35:41.229Z,970.2
2019-05-28T05:36:42.530Z,970.2
2019-05-28T05:37:48.711Z,970.3
2019-05-28T05:38:49.994Z,970.2
2019-05-28T05:39:51.283Z,970.2
2019-05-28T05:40:52.950Z,970.2
2019-05-28T05:41:54.315Z,970.2
2019-05-28T05:42:55.612Z,970.2
2019-05-28T05:43:56.909Z,970.2
2019-05-28T05:44:58.197Z,970.2
2019-05-28T05:46:04.345Z,970.2
2019-05-28T05:47:05.878Z,970.2
2019-05-28T05:48:10.018Z,970.2
2019-05-28T05:49:11.368Z,970.2
2019-05-28T05:50:13.023Z,970.2
2019-05-28T05:51:14.351Z,970.2
2019-05-28T05:52:23.379Z,970.2
2019-05-28T05:53:24.717Z,970.1
2019-05-28T05:54:26.028Z,970.3
2019-05-28T05:55:27.342Z,970.2
2019-05-28T05:56:28.657Z,970.1
2019-05-28T05:57:29.961Z,970.2
2019-05-28T05:58:31.284Z,970.2
2019-05-28T05:59:32.581Z,970.2
2019-05-28T06:00:33.937Z,970.2
2019-05-28T06:01:35.571Z,970.1
2019-05-28T06:02:37.023Z,970.2
2019-05-28T06:03:42.771Z,970.2
2019-05-28T06:04:46.675Z,970.2
2019-05-28T06:05:48.271Z,970.2
2019-05-28T06:06:49.578Z,970
2019-05-28T06:07:52.983Z,970.2
2019-05-28T06:08:54.421Z,970.1
2019-05-28T06:09:58.609Z,970.1
2019-05-28T06:10:59.955Z,970.1
2019-05-28T06:12:01.266Z,970.1
2019-05-28T06:13:02.568Z,970.1
2019-05-28T06:14:03.861Z,970.1
2019-05-28T06:15:05.345Z,970
2019-05-28T06:16:06.666Z,970
2019-05-28T06:17:08.115Z,970
2019-05-28T06:18:09.965Z,970
2019-05-28T06:19:11.507Z,969.9
2019-05-28T06:20:13.381Z,969.9
2019-05-28T06:21:19.705Z,970
2019-05-28T06:22:21.026Z,969.8
2019-05-28T06:23:22.314Z,970
2019-05-28T06:24:23.601Z,970
2019-05-28T06:25:25.669Z,970
2019-05-28T06:26:27.353Z,969.9
2019-05-28T06:27:28.692Z,970
2019-05-28T06:28:30.065Z,969.9
2019-05-28T06:29:31.375Z,969.9
2019-05-28T06:30:32.676Z,970
2019-05-28T06:31:35.400Z,970
2019-05-28T06:32:39.213Z,970
2019-05-28T06:33:57.363Z,970
2019-05-28T06:34:58.949Z,970
2019-05-28T06:36:00.221Z,970
2019-05-28T06:37:01.542Z,970
2019-05-28T06:38:03.008Z,970
2019-05-28T06:39:07.788Z,970
2019-05-28T06:40:09.787Z,970
2019-05-28T06:41:14.383Z,970
2019-05-28T06:42:15.706Z,970
2019-05-28T06:43:17.030Z,970
2019-05-28T06:44:20.475Z,970
2019-05-28T06:45:22.118Z,970
2019-05-28T06:46:26.372Z,970
2019-05-28T06:47:27.696Z,970
2019-05-28T06:48:29.242Z,970.1
2019-05-28T06:49:30.795Z,970.1
2019-05-28T06:50:32.905Z,970.1
2019-05-28T06:51:34.300Z,970.1
2019-05-28T06:52:35.767Z,970.1
2019-05-28T06:53:43.475Z,970.1
2019-05-28T06:54:44.799Z,970.2
2019-05-28T06:55:46.116Z,970.1
2019-05-28T06:56:47.467Z,970.2
2019-05-28T06:57:48.792Z,970.1
2019-05-28T06:58:50.132Z,970.2
2019-05-28T06:59:53.082Z,970.2
2019-05-28T07:00:54.372Z,970.2
2019-05-28T07:01:55.914Z,970.1
2019-05-28T07:03:00.653Z,970.2
2019-05-28T07:04:29.729Z,970.2
2019-05-28T07:05:35.445Z,970.2
2019-05-28T07:06:36.755Z,970.2
2019-05-28T07:07:38.302Z,970.1
2019-05-28T07:08:40.714Z,970.2
2019-05-28T07:11:00.020Z,970.2
2019-05-28T07:12:01.360Z,970.2
2019-05-28T07:13:03.152Z,970.2
2019-05-28T07:14:10.368Z,970.2
2019-05-28T07:15:11.698Z,970.2
2019-05-28T07:16:13.014Z,970.2
2019-05-28T07:17:14.384Z,970.2
2019-05-28T07:18:18.324Z,970.2
2019-05-28T07:19:25.736Z,970.2
2019-05-28T07:20:27.098Z,970.3
2019-05-28T07:21:28.409Z,970.3
2019-05-28T07:22:34.738Z,970.3
2019-05-28T07:23:36.324Z,970.3
2019-05-28T07:24:37.638Z,970.3
2019-05-28T07:25:39.406Z,970.4
2019-05-28T07:26:41.004Z,970.3
2019-05-28T07:27:42.604Z,970.1
2019-05-28T07:28:44.350Z,970.3
2019-05-28T07:29:45.678Z,970.4
2019-05-28T07:30:47.062Z,970.2
2019-05-28T07:31:51.395Z,970.2
2019-05-28T07:32:52.704Z,970.3
2019-05-28T07:33:56.592Z,970.4
2019-05-28T07:34:57.973Z,970.4
2019-05-28T07:35:59.641Z,970.4
2019-05-28T07:37:00.940Z,970.4
2019-05-28T07:38:07.568Z,970.4
2019-05-28T07:39:12.976Z,970.4
2019-05-28T07:40:32.137Z,970.4
2019-05-28T07:41:33.810Z,970.4
2019-05-28T07:42:38.064Z,970.4
2019-05-28T07:43:43.290Z,970.5
2019-05-28T07:44:47.216Z,970.4
2019-05-28T07:45:48.566Z,970.5
2019-05-28T07:46:51.327Z,970.4
2019-05-28T07:47:52.892Z,970.5
2019-05-28T07:48:54.316Z,970.5
2019-05-28T07:49:55.626Z,970.4
2019-05-28T07:50:56.956Z,970.4
2019-05-28T07:51:58.357Z,970.4
2019-05-28T07:52:59.875Z,970.4
2019-05-28T07:54:01.185Z,970.5
2019-05-28T07:55:02.722Z,970.5
2019-05-28T07:56:07.202Z,970.5
2019-05-28T07:57:08.638Z,970.5
2019-05-28T07:58:11.806Z,970.6
2019-05-28T07:59:13.301Z,970.6
2019-05-28T08:00:14.585Z,970.5
2019-05-28T08:01:15.918Z,970.5
2019-05-28T08:02:23.420Z,970.4
2019-05-28T08:03:27.161Z,970.5
2019-05-28T08:04:44.269Z,970.4
2019-05-28T08:05:47.559Z,970.4
2019-05-28T08:06:58.639Z,970.4
2019-05-28T08:08:00.037Z,970.4
2019-05-28T08:09:01.495Z,970.4
2019-05-28T08:10:05.535Z,970.5
2019-05-28T08:11:12.114Z,970.5
2019-05-28T08:12:13.680Z,970.6
2019-05-28T08:13:18.239Z,970.5
2019-05-28T08:14:19.574Z,970.5
2019-05-28T08:15:21.187Z,970.6
2019-05-28T08:16:25.006Z,970.5
2019-05-28T08:17:26.379Z,970.6
2019-05-28T08:18:27.748Z,970.6
2019-05-28T08:19:29.050Z,970.6
2019-05-28T08:20:30.686Z,970.7
2019-05-28T08:21:33.644Z,970.8
2019-05-28T08:22:43.408Z,970.7
2019-05-28T08:23:45.042Z,970.8
2019-05-28T08:24:46.368Z,970.8
2019-05-28T08:25:48.777Z,970.9
2019-05-28T08:26:50.104Z,970.9
2019-05-28T08:27:51.504Z,970.9
2019-05-28T08:28:52.990Z,970.9
2019-05-28T08:29:54.385Z,970.9
2019-05-28T08:31:17.422Z,971
2019-05-28T08:32:23.946Z,971
2019-05-28T08:33:25.618Z,971
2019-05-28T08:34:27.249Z,971
2019-05-28T08:35:29.003Z,970.9
2019-05-28T08:36:30.293Z,971
2019-05-28T08:37:31.587Z,970.9
2019-05-28T08:38:32.885Z,971
2019-05-28T08:39:36.623Z,971
2019-05-28T08:40:41.075Z,970.9
2019-05-28T08:41:42.417Z,971
2019-05-28T08:42:44.427Z,971
2019-05-28T08:43:45.879Z,971
2019-05-28T08:44:47.320Z,971
2019-05-28T08:45:48.681Z,970.9
2019-05-28T08:46:50.303Z,971
2019-05-28T08:47:52.742Z,971
2019-05-28T08:48:54.578Z,970.7
2019-05-28T08:49:55.893Z,971
2019-05-28T08:50:57.286Z,970.9
2019-05-28T08:51:58.622Z,971
2019-05-28T08:53:02.463Z,971.1
2019-05-28T08:54:11.309Z,971.1
2019-05-28T08:55:15.097Z,971.1
2019-05-28T08:56:16.729Z,971.1
2019-05-28T08:57:18.806Z,971.1
2019-05-28T08:58:21.041Z,971.1
2019-05-28T08:59:22.614Z,971.1
2019-05-28T09:00:23.940Z,971.1
2019-05-28T09:01:25.309Z,971.2
2019-05-28T09:02:29.491Z,971.2
2019-05-28T09:03:30.811Z,971.1
2019-05-28T09:04:32.388Z,971.1
2019-05-28T09:05:33.745Z,971.1
2019-05-28T09:06:37.939Z,971.1
2019-05-28T09:07:40.410Z,971.1
2019-05-28T09:08:41.942Z,971.1
2019-05-28T09:09:43.388Z,971.2
2019-05-28T09:10:44.750Z,971.1
2019-05-28T09:11:46.061Z,971.1
2019-05-28T09:12:47.374Z,971.2
2019-05-28T09:13:48.683Z,971.2
2019-05-28T09:14:56.670Z,970.9
2019-05-28T09:15:58.273Z,971.2
2019-05-28T09:16:59.703Z,971.1
2019-05-28T09:18:01.034Z,971.1
2019-05-28T09:19:02.359Z,971.2
2019-05-28T09:20:03.664Z,971.2
2019-05-28T09:21:08.327Z,971.2
2019-05-28T09:22:26.277Z,971.1
2019-05-28T09:23:27.836Z,971.2
2019-05-28T09:24:29.189Z,971.2
2019-05-28T09:25:30.489Z,971.1
2019-05-28T09:26:31.946Z,971.2
2019-05-28T09:27:39.078Z,971.2
2019-05-28T09:28:40.414Z,971.2
2019-05-28T09:29:41.731Z,971.2
2019-05-28T09:30:43.133Z,971.2
2019-05-28T09:31:44.511Z,971.2
2019-05-28T09:32:45.889Z,971.2
2019-05-28T09:33:55.373Z,971.2
2019-05-28T09:35:01.374Z,971.2
2019-05-28T09:36:09.759Z,971
2019-05-28T09:37:11.129Z,971.3
2019-05-28T09:38:18.581Z,971.3
2019-05-28T09:39:21.035Z,971.2
2019-05-28T09:40:22.354Z,971.3
2019-05-28T09:41:23.670Z,971.3
2019-05-28T09:42:25.024Z,971.3
2019-05-28T09:43:26.406Z,971.2
2019-05-28T09:44:27.733Z,971.2
2019-05-28T09:45:31.365Z,971.1
2019-05-28T09:46:32.659Z,971.1
2019-05-28T09:47:34.050Z,971.1
2019-05-28T09:48:35.690Z,971.1
2019-05-28T09:49:37.111Z,971.1
2019-05-28T09:50:38.437Z,971.1
2019-05-28T09:51:39.773Z,971.1
2019-05-28T09:52:55.367Z,970.9
2019-05-28T09:53:56.795Z,971.1
2019-05-28T09:54:58.101Z,971
2019-05-28T09:55:59.436Z,971
2019-05-28T09:57:00.747Z,971.1
2019-05-28T09:58:02.478Z,971.1
2019-05-28T09:59:03.798Z,971
2019-05-28T10:00:05.119Z,971.1
2019-05-28T10:01:06.472Z,971.1
2019-05-28T10:02:07.826Z,971.1
2019-05-28T10:03:09.491Z,971.1
2019-05-28T10:04:13.551Z,971.1
2019-05-28T10:05:17.598Z,971.1
2019-05-28T10:06:19.025Z,971.1
2019-05-28T10:07:23.507Z,971.1
2019-05-28T10:08:24.935Z,971.1
2019-05-28T10:09:27.652Z,971
2019-05-28T10:10:29.278Z,971.1
2019-05-28T10:11:30.575Z,971
2019-05-28T10:12:31.911Z,971.1
2019-05-28T10:13:41.694Z,971.1
2019-05-28T10:14:45.370Z,971.1
2019-05-28T10:15:47.222Z,971.1
2019-05-28T10:16:50.896Z,971.1
2019-05-28T10:17:52.825Z,971.1
2019-05-28T10:18:55.259Z,971.1
2019-05-28T10:19:57.945Z,971.1
2019-05-28T10:21:19.207Z,971
2019-05-28T10:22:20.718Z,971.1
2019-05-28T10:23:22.050Z,971.1
2019-05-28T10:24:27.064Z,971
2019-05-28T10:25:28.357Z,971.1
2019-05-28T10:26:29.669Z,971.1
2019-05-28T10:27:30.992Z,971.1
2019-05-28T10:28:32.294Z,971.1
2019-05-28T10:29:33.869Z,971.1
2019-05-28T10:30:35.188Z,971.1
2019-05-28T10:31:37.760Z,971.1
2019-05-28T10:32:41.376Z,971
2019-05-28T10:33:42.727Z,971
2019-05-28T10:35:04.274Z,971.1
2019-05-28T10:36:08.607Z,971.1
2019-05-28T10:37:12.447Z,971.1
2019-05-28T10:38:17.308Z,971.1
2019-05-28T10:39:18.672Z,971
2019-05-28T10:40:20.294Z,971
2019-05-28T10:41:21.648Z,971.1
2019-05-28T10:42:22.991Z,971.1
2019-05-28T10:43:24.565Z,971.1
2019-05-28T10:44:28.253Z,971.1
2019-05-28T10:45:30.767Z,971
2019-05-28T10:46:32.143Z,971.1
2019-05-28T10:47:33.473Z,971.1
2019-05-28T10:48:35.008Z,971.1
2019-05-28T10:49:36.344Z,971
2019-05-28T10:50:37.694Z,971.1
2019-05-28T10:51:42.300Z,971.1
2019-05-28T10:52:43.895Z,971.1
2019-05-28T10:53:45.188Z,971.1
2019-05-28T10:54:46.512Z,971.1
2019-05-28T10:55:47.853Z,971.1
2019-05-28T10:56:49.150Z,971.1
2019-05-28T10:57:54.254Z,971.1
2019-05-28T10:58:58.322Z,970.9
2019-05-28T11:00:01.288Z,971.1
2019-05-28T11:01:02.824Z,971.1
2019-05-28T11:02:04.168Z,971
2019-05-28T11:03:07.628Z,971
2019-05-28T11:04:11.782Z,971
2019-05-28T11:05:16.905Z,971
2019-05-28T11:06:18.260Z,971
2019-05-28T11:07:19.575Z,970.9
2019-05-28T11:08:20.944Z,971
2019-05-28T11:09:22.298Z,971
2019-05-28T11:10:25.741Z,971
2019-05-28T11:11:27.114Z,970.9
2019-05-28T11:12:28.946Z,970.9
2019-05-28T11:13:30.320Z,970.8
2019-05-28T11:14:32.832Z,970.9
2019-05-28T11:15:34.161Z,970.9
2019-05-28T11:16:35.552Z,971
2019-05-28T11:17:36.891Z,970.9
2019-05-28T11:18:38.580Z,970.9
2019-05-28T11:19:42.033Z,970.9
2019-05-28T11:20:43.391Z,970.9
2019-05-28T11:21:44.715Z,970.9
2019-05-28T11:22:46.070Z,971
2019-05-28T11:23:47.597Z,971
2019-05-28T11:24:48.914Z,970.9
2019-05-28T11:25:50.204Z,970.9
2019-05-28T11:26:51.564Z,971
2019-05-28T11:27:54.176Z,970.9
2019-05-28T11:28:55.584Z,970.9
2019-05-28T11:29:57.058Z,970.9
2019-05-28T11:31:01.707Z,970.9
2019-05-28T11:32:06.092Z,971
2019-05-28T11:33:07.423Z,971
2019-05-28T11:34:08.721Z,971
2019-05-28T11:35:11.677Z,971
2019-05-28T11:36:15.302Z,971
2019-05-28T11:37:16.924Z,971
2019-05-28T11:38:26.144Z,970.9
2019-05-28T11:39:27.624Z,971
2019-05-28T11:40:33.032Z,971
2019-05-28T11:41:43.391Z,971
2019-05-28T11:42:47.212Z,971
2019-05-28T11:43:48.610Z,971
2019-05-28T11:44:49.968Z,971
2019-05-28T11:45:53.258Z,971
2019-05-28T11:46:54.613Z,971
2019-05-28T11:47:59.039Z,971
2019-05-28T11:49:04.772Z,971
2019-05-28T11:50:09.155Z,971
2019-05-28T11:51:10.507Z,971
2019-05-28T11:52:11.965Z,971
2019-05-28T11:53:13.878Z,971.1
2019-05-28T11:54:15.277Z,971.1
2019-05-28T11:55:16.644Z,971.2
2019-05-28T11:56:20.692Z,971.2
2019-05-28T11:57:22.302Z,971.2
2019-05-28T11:58:23.628Z,971.2
2019-05-28T11:59:25.060Z,971.2
2019-05-28T12:00:26.486Z,971.2
2019-05-28T12:01:35.663Z,971.3
2019-05-28T12:02:37.022Z,971.2
2019-05-28T12:03:38.668Z,971.3
2019-05-28T12:04:41.972Z,971.4
2019-05-28T12:05:43.331Z,971.3
2019-05-28T12:06:46.324Z,971.3
2019-05-28T12:07:50.883Z,971.2
2019-05-28T12:08:53.294Z,971.2
2019-05-28T12:09:54.847Z,971.2
2019-05-28T12:10:56.215Z,971.1
2019-05-28T12:11:57.549Z,971.1
2019-05-28T12:13:00.144Z,971.1
2019-05-28T12:14:01.534Z,971.1
2019-05-28T12:15:04.192Z,971.1
2019-05-28T12:16:05.581Z,971.1
2019-05-28T12:17:06.889Z,971.1
2019-05-28T12:18:08.321Z,970.9
2019-05-28T12:19:11.466Z,971
2019-05-28T12:20:14.268Z,970.8
2019-05-28T12:21:16.092Z,971
2019-05-28T12:22:17.386Z,971
2019-05-28T12:23:18.711Z,971
2019-05-28T12:24:20.089Z,970.9
2019-05-28T12:25:21.384Z,971.1
2019-05-28T12:26:25.268Z,971.1
2019-05-28T12:27:27.056Z,971.1
2019-05-28T12:28:46.428Z,971.1
2019-05-28T12:29:55.987Z,971.1
2019-05-28T12:30:57.303Z,971.1
2019-05-28T12:31:59.204Z,971.1
2019-05-28T12:33:05.128Z,971.1
2019-05-28T12:34:09.145Z,971.1
2019-05-28T12:35:29.534Z,971.2
2019-05-28T12:36:31.356Z,971.2
2019-05-28T12:37:50.048Z,971.2
2019-05-28T12:38:56.224Z,971.2
2019-05-28T12:39:57.790Z,971.3
2019-05-28T12:40:59.340Z,971.4
2019-05-28T12:42:07.280Z,971.4
2019-05-28T12:43:08.854Z,971.5
2019-05-28T12:44:17.687Z,971.4
2019-05-28T12:45:36.178Z,971.4
2019-05-28T12:46:37.643Z,971.5
2019-05-28T12:47:39.176Z,971.5
2019-05-28T12:48:40.485Z,971.5
2019-05-28T12:49:42.001Z,971.5
2019-05-28T12:50:43.334Z,971.5
2019-05-28T12:51:44.686Z,971.6
2019-05-28T12:52:48.274Z,971.6
2019-05-28T12:53:52.252Z,971.6
2019-05-28T12:54:55.048Z,971.7
2019-05-28T12:55:56.383Z,971.7
2019-05-28T12:56:57.749Z,971.8
2019-05-28T12:57:59.602Z,971.7
2019-05-28T12:59:00.970Z,971.8
2019-05-28T13:00:04.518Z,971.7
2019-05-28T13:01:05.981Z,971.8
2019-05-28T13:02:11.274Z,971.7
2019-05-28T13:03:12.616Z,971.8
2019-05-28T13:04:13.971Z,971.8
2019-05-28T13:05:15.295Z,971.8
2019-05-28T13:06:16.825Z,971.8
2019-05-28T13:07:18.200Z,971.7
2019-05-28T13:08:20.818Z,971.7
2019-05-28T13:09:24.889Z,971.7
2019-05-28T13:10:26.548Z,971.8
2019-05-28T13:11:29.639Z,971.8
2019-05-28T13:12:30.983Z,971.7
2019-05-28T13:13:32.298Z,971.8
2019-05-28T13:14:34.070Z,971.9
2019-05-28T13:15:35.502Z,971.9
2019-05-28T13:16:41.075Z,971.9
2019-05-28T13:17:43.143Z,971.9
2019-05-28T13:18:45.827Z,971.9
2019-05-28T13:19:47.566Z,971.9
2019-05-28T13:20:49.292Z,971.9
2019-05-28T13:21:50.828Z,971.9
2019-05-28T13:22:54.524Z,971.8
2019-05-28T13:23:58.322Z,971.9
2019-05-28T13:25:05.240Z,971.9
2019-05-28T13:26:09.513Z,971.9
2019-05-28T13:27:19.059Z,971.9
2019-05-28T13:28:23.295Z,972
2019-05-28T13:29:24.625Z,972
2019-05-28T13:30:25.953Z,972
2019-05-28T13:31:28.135Z,972
2019-05-28T13:32:30.303Z,971.9
2019-05-28T13:33:31.693Z,971.9
2019-05-28T13:34:33.056Z,972
2019-05-28T13:35:34.360Z,972
2019-05-28T13:36:35.655Z,972